createdAt,value
2022-07-31T00:00:36.923Z,20.58
2022-07-31T00:03:05.995Z,20.58
2022-07-31T00:05:41.446Z,20.51
2022-07-31T00:08:08.432Z,20.53
2022-07-31T00:10:49.929Z,20.49
2022-07-31T00:13:16.366Z,20.47
2022-07-31T00:15:42.803Z,20.48
2022-07-31T00:18:09.230Z,20.45
2022-07-31T00:20:35.851Z,20.45
2022-07-31T00:23:02.291Z,20.45
2022-07-31T00:25:34.953Z,20.46
2022-07-31T00:28:01.396Z,20.42
2022-07-31T00:30:27.855Z,20.39
2022-07-31T00:32:54.709Z,20.39
2022-07-31T00:35:21.282Z,20.37
2022-07-31T00:37:47.808Z,20.34
2022-07-31T00:40:22.933Z,20.30
2022-07-31T00:42:49.455Z,20.34
2022-07-31T00:45:15.871Z,20.36
2022-07-31T00:47:43.306Z,20.33
2022-07-31T00:50:12.862Z,20.28
2022-07-31T00:52:39.378Z,20.26
2022-07-31T00:55:12.976Z,20.30
2022-07-31T00:57:39.441Z,20.27
2022-07-31T01:00:06.762Z,20.21
2022-07-31T01:02:33.282Z,20.18
2022-07-31T01:04:59.709Z,20.18
2022-07-31T01:07:28.608Z,20.14
2022-07-31T01:09:57.115Z,20.12
2022-07-31T01:12:31.362Z,20.09
2022-07-31T01:15:02.960Z,20.02
2022-07-31T01:17:31.287Z,20.04
2022-07-31T01:19:58.243Z,19.98
2022-07-31T01:22:47.790Z,19.98
2022-07-31T01:25:33.061Z,19.97
2022-07-31T01:28:15.123Z,19.93
2022-07-31T01:31:24.188Z,19.87
2022-07-31T01:33:55.912Z,19.77
2022-07-31T01:36:28.086Z,19.76
2022-07-31T01:38:57.484Z,19.66
2022-07-31T01:41:32.245Z,19.70
2022-07-31T01:44:01.123Z,19.64
2022-07-31T01:46:29.185Z,19.54
2022-07-31T01:48:57.280Z,19.49
2022-07-31T01:51:32.011Z,19.48
2022-07-31T01:54:01.106Z,19.38
2022-07-31T01:56:42.031Z,19.40
2022-07-31T01:59:20.044Z,19.36
2022-07-31T02:01:59.526Z,19.21
2022-07-31T02:04:27.244Z,19.21
2022-07-31T02:06:56.287Z,19.14
2022-07-31T02:09:31.833Z,19.11
2022-07-31T02:12:00.149Z,19.04
2022-07-31T02:14:28.976Z,18.96
2022-07-31T02:16:56.226Z,18.97
2022-07-31T02:19:25.513Z,18.96
2022-07-31T02:22:13.967Z,18.87
2022-07-31T02:24:40.383Z,18.85
2022-07-31T02:27:53.866Z,18.80
2022-07-31T02:29:58.936Z,18.76
2022-07-31T02:32:26.827Z,18.76
2022-07-31T02:34:55.655Z,18.70
2022-07-31T02:37:31.044Z,18.71
2022-07-31T02:40:01.201Z,18.71
2022-07-31T02:42:35.077Z,18.69
2022-07-31T02:45:02.416Z,18.66
2022-07-31T02:47:29.610Z,18.63
2022-07-31T02:49:58.006Z,18.57
2022-07-31T02:52:25.009Z,18.54
2022-07-31T02:54:52.843Z,18.49
2022-07-31T02:57:21.534Z,18.51
2022-07-31T02:59:47.944Z,18.47
2022-07-31T03:02:21.055Z,18.39
2022-07-31T03:04:47.452Z,18.37
2022-07-31T03:07:27.069Z,18.34
2022-07-31T03:09:53.436Z,18.27
2022-07-31T03:12:19.980Z,18.24
2022-07-31T03:14:49.454Z,18.19
2022-07-31T03:17:18.271Z,18.15
2022-07-31T03:19:45.242Z,18.07
2022-07-31T03:22:18.070Z,17.97
2022-07-31T03:24:47.101Z,17.92
2022-07-31T03:27:21.078Z,17.83
2022-07-31T03:29:47.465Z,17.80
2022-07-31T03:32:13.871Z,17.75
2022-07-31T03:34:40.745Z,17.72
2022-07-31T03:37:07.276Z,17.62
2022-07-31T03:39:33.917Z,17.61
2022-07-31T03:42:12.930Z,17.58
2022-07-31T03:44:46.533Z,17.55
2022-07-31T03:47:20.091Z,17.55
2022-07-31T03:49:49.010Z,17.54
2022-07-31T03:52:22.120Z,17.58
2022-07-31T03:54:48.700Z,17.60
2022-07-31T03:57:26.952Z,17.56
2022-07-31T04:00:00.184Z,17.56
2022-07-31T04:02:31.722Z,17.59
2022-07-31T04:04:59.352Z,17.62
2022-07-31T04:07:28.282Z,17.61
2022-07-31T04:09:57.213Z,17.64
2022-07-31T04:12:23.597Z,17.65
2022-07-31T04:14:49.988Z,17.69
2022-07-31T04:17:16.475Z,17.72
2022-07-31T04:19:42.902Z,17.75
2022-07-31T04:22:09.640Z,17.76
2022-07-31T04:24:36.152Z,17.77
2022-07-31T04:27:08.262Z,17.80
2022-07-31T04:29:39.689Z,17.84
2022-07-31T04:32:10.656Z,17.88
2022-07-31T04:34:37.361Z,17.95
2022-07-31T04:37:04.676Z,17.99
2022-07-31T04:39:31.212Z,18.02
2022-07-31T04:41:57.679Z,18.07
2022-07-31T04:44:24.150Z,18.23
2022-07-31T04:46:50.671Z,18.23
2022-07-31T04:49:17.609Z,18.24
2022-07-31T04:51:46.555Z,18.27
2022-07-31T04:54:13.093Z,18.31
2022-07-31T04:56:42.305Z,18.31
2022-07-31T04:59:18.387Z,18.34
2022-07-31T05:01:45.327Z,18.34
2022-07-31T05:04:12.552Z,18.34
2022-07-31T05:06:47.162Z,18.35
2022-07-31T05:09:19.155Z,18.37
2022-07-31T05:11:47.392Z,18.39
2022-07-31T05:14:18.467Z,18.42
2022-07-31T05:16:45.651Z,18.43
2022-07-31T05:19:15.760Z,18.45
2022-07-31T05:21:51.413Z,18.49
2022-07-31T05:24:22.574Z,18.54
2022-07-31T05:26:59.892Z,18.58
2022-07-31T05:29:26.786Z,18.66
2022-07-31T05:31:59.885Z,18.72
2022-07-31T05:34:30.477Z,18.79
2022-07-31T05:37:00.985Z,18.87
2022-07-31T05:39:28.639Z,18.94
2022-07-31T05:41:55.170Z,19.02
2022-07-31T05:44:24.477Z,19.13
2022-07-31T05:49:18.781Z,19.38
2022-07-31T05:51:46.495Z,19.44
2022-07-31T05:54:13.044Z,19.51
2022-07-31T05:56:46.183Z,19.63
2022-07-31T05:59:12.614Z,19.68
2022-07-31T06:01:39.078Z,19.76
2022-07-31T06:04:05.615Z,19.86
2022-07-31T06:06:32.079Z,19.91
2022-07-31T06:09:19.203Z,19.99
2022-07-31T06:11:45.621Z,20.00
2022-07-31T06:14:12.078Z,20.06
2022-07-31T06:16:47.199Z,20.08
2022-07-31T06:19:13.625Z,20.12
2022-07-31T06:21:40.035Z,20.14
2022-07-31T06:24:07.193Z,20.19
2022-07-31T06:26:35.400Z,20.24
2022-07-31T06:29:01.794Z,20.27
2022-07-31T06:31:35.222Z,20.39
2022-07-31T06:34:01.746Z,20.46
2022-07-31T06:36:28.174Z,20.49
2022-07-31T06:38:55.102Z,20.60
2022-07-31T06:41:40.072Z,20.68
2022-07-31T06:44:09.604Z,20.71
2022-07-31T06:46:36.282Z,20.78
2022-07-31T06:49:08.787Z,20.79
2022-07-31T06:51:42.225Z,20.85
2022-07-31T06:54:09.882Z,20.93
2022-07-31T06:56:44.247Z,20.99
2022-07-31T06:59:10.771Z,21.07
2022-07-31T07:01:37.331Z,21.19
2022-07-31T07:04:06.297Z,21.26
2022-07-31T07:06:35.225Z,21.48
2022-07-31T07:09:01.662Z,21.72
2022-07-31T07:11:34.237Z,21.90
2022-07-31T07:14:00.740Z,22.06
2022-07-31T07:16:27.324Z,22.09
2022-07-31T07:18:56.714Z,22.11
2022-07-31T07:21:23.256Z,22.19
2022-07-31T07:23:49.701Z,22.24
2022-07-31T07:26:27.271Z,22.32
2022-07-31T07:28:53.679Z,22.36
2022-07-31T07:31:20.139Z,22.43
2022-07-31T07:33:47.845Z,22.47
2022-07-31T07:36:23.973Z,22.68
2022-07-31T07:38:55.594Z,22.70
2022-07-31T07:41:23.969Z,22.88
2022-07-31T07:43:53.292Z,22.95
2022-07-31T07:46:28.288Z,23.04
2022-07-31T07:48:54.908Z,23.27
2022-07-31T07:51:29.288Z,23.25
2022-07-31T07:53:55.836Z,23.51
2022-07-31T07:56:29.281Z,23.55
2022-07-31T07:58:55.746Z,23.67
2022-07-31T08:01:22.455Z,24.13
2022-07-31T08:03:52.069Z,24.27
2022-07-31T08:06:23.237Z,24.54
2022-07-31T08:08:49.866Z,24.39
2022-07-31T08:11:23.414Z,24.83
2022-07-31T08:13:52.899Z,25.14
2022-07-31T08:16:20.637Z,25.12
2022-07-31T08:18:48.209Z,25.65
2022-07-31T08:21:21.310Z,25.91
2022-07-31T08:23:50.454Z,25.78
2022-07-31T08:26:24.327Z,25.62
2022-07-31T08:28:54.823Z,25.85
2022-07-31T08:31:29.322Z,26.18
2022-07-31T08:33:55.800Z,26.39
2022-07-31T08:36:22.613Z,26.47
2022-07-31T08:38:51.701Z,26.45
2022-07-31T08:41:21.234Z,26.68
2022-07-31T08:44:01.498Z,26.86
2022-07-31T08:46:39.335Z,27.15
2022-07-31T08:49:07.748Z,27.29
2022-07-31T08:51:50.765Z,27.20
2022-07-31T08:54:27.631Z,27.51
2022-07-31T08:56:53.946Z,27.76
2022-07-31T08:59:20.562Z,27.86
2022-07-31T09:01:47.201Z,27.82
2022-07-31T09:04:13.681Z,27.75
2022-07-31T09:06:40.278Z,28.04
2022-07-31T09:09:09.252Z,28.02
2022-07-31T09:11:47.215Z,28.17
2022-07-31T09:14:14.671Z,28.28
2022-07-31T09:16:50.364Z,28.30
2022-07-31T09:19:51.146Z,28.31
2022-07-31T09:22:10.103Z,28.22
2022-07-31T09:24:39.798Z,28.23
2022-07-31T09:27:09.372Z,28.12
2022-07-31T09:29:41.277Z,28.10
2022-07-31T09:32:16.277Z,28.17
2022-07-31T09:34:43.534Z,28.31
2022-07-31T09:37:14.110Z,28.47
2022-07-31T09:39:52.031Z,28.62
2022-07-31T09:42:20.546Z,28.62
2022-07-31T09:44:49.326Z,28.60
2022-07-31T09:47:28.980Z,28.59
2022-07-31T09:50:08.430Z,28.62
2022-07-31T09:52:39.518Z,28.50
2022-07-31T09:55:15.539Z,28.55
2022-07-31T09:57:54.166Z,28.33
2022-07-31T10:00:24.771Z,28.39
2022-07-31T10:02:54.126Z,28.39
2022-07-31T10:05:23.846Z,28.43
2022-07-31T10:07:51.072Z,28.64
2022-07-31T10:10:18.197Z,28.76
2022-07-31T10:12:49.647Z,29.07
2022-07-31T10:15:17.950Z,29.49
2022-07-31T10:17:48.524Z,29.49
2022-07-31T10:20:21.596Z,29.84
2022-07-31T10:22:53.315Z,29.83
2022-07-31T10:25:23.623Z,30.00
2022-07-31T10:27:51.280Z,30.26
2022-07-31T10:30:17.779Z,30.34
2022-07-31T10:32:44.937Z,30.48
2022-07-31T10:35:12.159Z,30.26
2022-07-31T10:37:57.484Z,30.07
2022-07-31T10:40:35.442Z,29.77
2022-07-31T10:43:20.349Z,29.75
2022-07-31T10:45:51.946Z,30.05
2022-07-31T10:48:21.735Z,30.29
2022-07-31T10:51:00.386Z,30.22
2022-07-31T10:53:50.626Z,30.35
2022-07-31T10:56:13.880Z,30.52
2022-07-31T10:58:57.251Z,30.41
2022-07-31T11:01:28.851Z,30.36
2022-07-31T11:04:01.743Z,30.39
2022-07-31T11:06:40.172Z,30.66
2022-07-31T11:09:09.318Z,30.66
2022-07-31T11:11:38.012Z,30.77
2022-07-31T11:14:04.582Z,31.19
2022-07-31T11:16:31.078Z,31.24
2022-07-31T11:19:09.046Z,31.13
2022-07-31T11:21:42.286Z,30.84
2022-07-31T11:24:26.866Z,30.76
2022-07-31T11:26:58.343Z,30.54
2022-07-31T11:30:01.944Z,30.39
2022-07-31T11:32:26.523Z,30.36
2022-07-31T11:35:02.510Z,30.22
2022-07-31T11:37:46.376Z,29.98
2022-07-31T11:40:27.496Z,29.85
2022-07-31T11:43:24.382Z,29.85
2022-07-31T11:45:49.650Z,29.77
2022-07-31T11:48:18.969Z,29.72
2022-07-31T11:50:47.141Z,29.76
2022-07-31T11:53:13.770Z,29.82
2022-07-31T11:55:48.821Z,29.69
2022-07-31T11:58:17.384Z,29.75
2022-07-31T12:00:48.618Z,29.80
2022-07-31T12:03:19.062Z,29.76
2022-07-31T12:05:47.443Z,29.85
2022-07-31T12:08:14.523Z,29.92
2022-07-31T12:10:55.499Z,29.87
2022-07-31T12:13:23.322Z,29.75
2022-07-31T12:16:04.255Z,29.77
2022-07-31T12:18:47.388Z,30.09
2022-07-31T12:21:14.367Z,30.30
2022-07-31T12:23:42.197Z,30.83
2022-07-31T12:26:11.105Z,31.07
2022-07-31T12:28:37.696Z,31.15
2022-07-31T12:31:09.047Z,30.98
2022-07-31T12:33:43.036Z,30.77
2022-07-31T12:36:14.654Z,30.77
2022-07-31T12:38:47.678Z,30.64
2022-07-31T12:41:21.567Z,30.49
2022-07-31T12:43:51.969Z,30.26
2022-07-31T12:46:42.543Z,30.07
2022-07-31T12:49:09.039Z,29.92
2022-07-31T12:51:46.342Z,30.09
2022-07-31T12:54:17.764Z,30.18
2022-07-31T12:56:53.538Z,30.30
2022-07-31T12:59:19.937Z,30.43
2022-07-31T13:01:46.428Z,30.36
2022-07-31T13:04:20.717Z,30.10
2022-07-31T13:06:51.647Z,29.92
2022-07-31T13:09:18.522Z,29.92
2022-07-31T13:11:58.584Z,30.15
2022-07-31T13:14:25.406Z,30.73
2022-07-31T13:16:59.547Z,30.99
2022-07-31T13:19:29.505Z,31.01
2022-07-31T13:21:58.491Z,30.80
2022-07-31T13:24:25.393Z,30.59
2022-07-31T13:26:52.816Z,30.82
2022-07-31T13:29:21.746Z,31.23
2022-07-31T13:31:53.286Z,31.35
2022-07-31T13:34:19.939Z,31.57
2022-07-31T13:36:57.569Z,31.61
2022-07-31T13:39:24.047Z,31.31
2022-07-31T13:41:50.477Z,31.14
2022-07-31T13:44:17.445Z,31.04
2022-07-31T13:46:46.626Z,31.21
2022-07-31T13:49:13.059Z,31.08
2022-07-31T13:51:46.605Z,31.12
2022-07-31T13:54:13.041Z,31.34
2022-07-31T13:56:48.622Z,31.37
2022-07-31T13:59:18.214Z,31.47
2022-07-31T14:02:02.943Z,31.60
2022-07-31T14:04:38.849Z,31.27
2022-07-31T14:07:13.073Z,31.36
2022-07-31T14:09:39.629Z,31.53
2022-07-31T14:12:34.621Z,31.39
2022-07-31T14:15:01.193Z,31.12
2022-07-31T14:17:27.673Z,30.91
2022-07-31T14:19:54.202Z,31.00
2022-07-31T14:22:20.667Z,31.45
2022-07-31T14:24:49.970Z,31.76
2022-07-31T14:27:24.627Z,31.77
2022-07-31T14:29:51.819Z,31.63
2022-07-31T14:32:25.634Z,31.83
2022-07-31T14:34:52.435Z,32.23
2022-07-31T14:37:26.645Z,32.34
2022-07-31T14:39:53.335Z,31.95
2022-07-31T14:42:27.666Z,31.71
2022-07-31T14:44:54.765Z,31.90
2022-07-31T14:47:21.293Z,31.87
2022-07-31T14:50:07.404Z,31.78
2022-07-31T14:52:37.527Z,31.92
2022-07-31T14:55:04.188Z,31.99
2022-07-31T14:57:32.913Z,32.05
2022-07-31T14:59:59.427Z,32.07
2022-07-31T15:02:32.684Z,32.22
2022-07-31T15:06:37.549Z,31.91
2022-07-31T15:08:03.774Z,31.69
2022-07-31T15:10:30.518Z,31.81
2022-07-31T15:13:03.717Z,31.90
2022-07-31T15:15:30.217Z,32.00
2022-07-31T15:18:06.691Z,31.91
2022-07-31T15:20:35.188Z,31.93
2022-07-31T15:23:08.697Z,31.92
2022-07-31T15:25:35.232Z,31.80
2022-07-31T15:28:01.649Z,31.59
2022-07-31T15:30:28.122Z,31.60
2022-07-31T15:32:54.628Z,31.60
2022-07-31T15:35:26.037Z,31.52
2022-07-31T15:37:52.468Z,31.43
2022-07-31T15:40:19.019Z,31.40
2022-07-31T15:42:46.986Z,31.40
2022-07-31T15:45:16.452Z,31.21
2022-07-31T15:47:44.225Z,31.03
2022-07-31T15:50:13.024Z,30.85
2022-07-31T15:52:40.979Z,30.73
2022-07-31T15:55:11.506Z,30.69
2022-07-31T15:57:38.520Z,30.68
2022-07-31T16:00:07.102Z,30.65
2022-07-31T16:02:33.611Z,30.50
2022-07-31T16:05:11.495Z,30.46
2022-07-31T16:08:30.446Z,30.54
2022-07-31T16:10:25.255Z,30.48
2022-07-31T16:12:54.073Z,30.57
2022-07-31T16:15:20.576Z,30.76
2022-07-31T16:17:49.601Z,30.62
2022-07-31T16:20:25.735Z,30.61
2022-07-31T16:22:56.358Z,30.56
2022-07-31T16:25:24.343Z,30.46
2022-07-31T16:27:50.880Z,30.49
2022-07-31T16:30:17.411Z,30.46
2022-07-31T16:32:44.311Z,30.41
2022-07-31T16:35:13.167Z,30.35
2022-07-31T16:37:50.099Z,30.36
2022-07-31T16:40:29.730Z,30.33
2022-07-31T16:43:47.508Z,30.23
2022-07-31T16:45:50.401Z,30.25
2022-07-31T16:48:17.171Z,30.36
2022-07-31T16:50:43.577Z,30.30
2022-07-31T16:53:13.620Z,30.17
2022-07-31T16:56:00.617Z,30.21
2022-07-31T16:58:30.687Z,30.19
2022-07-31T17:00:57.666Z,30.17
2022-07-31T17:03:58.687Z,30.09
2022-07-31T17:06:11.417Z,29.93
2022-07-31T17:08:40.221Z,30.02
2022-07-31T17:11:08.991Z,29.96
2022-07-31T17:13:37.791Z,29.87
2022-07-31T17:16:04.647Z,29.80
2022-07-31T17:18:31.081Z,29.74
2022-07-31T17:20:59.810Z,29.67
2022-07-31T17:23:44.449Z,29.52
2022-07-31T17:26:21.400Z,29.52
2022-07-31T17:28:51.341Z,29.49
2022-07-31T17:31:19.046Z,29.45
2022-07-31T17:33:49.613Z,29.38
2022-07-31T17:36:26.968Z,29.34
2022-07-31T17:38:56.652Z,29.21
2022-07-31T17:41:24.645Z,29.24
2022-07-31T17:43:53.286Z,29.27
2022-07-31T17:46:28.109Z,29.31
2022-07-31T17:48:55.881Z,29.20
2022-07-31T17:51:22.456Z,29.18
2022-07-31T17:53:55.540Z,29.07
2022-07-31T17:56:30.863Z,29.04
2022-07-31T17:59:04.502Z,28.96
2022-07-31T18:01:33.365Z,28.92
2022-07-31T18:04:02.761Z,28.83
2022-07-31T18:06:29.652Z,28.69
2022-07-31T18:08:57.959Z,28.68
2022-07-31T18:11:26.858Z,28.58
2022-07-31T18:13:54.158Z,28.54
2022-07-31T18:16:23.218Z,28.51
2022-07-31T18:18:54.165Z,28.44
2022-07-31T18:21:21.081Z,28.42
2022-07-31T18:23:47.777Z,28.39
2022-07-31T18:26:14.537Z,28.27
2022-07-31T18:28:41.261Z,28.23
2022-07-31T18:31:32.102Z,28.14
2022-07-31T18:33:56.889Z,28.16
2022-07-31T18:36:23.414Z,28.09
2022-07-31T18:38:54.155Z,28.20
2022-07-31T18:41:20.831Z,28.15
2022-07-31T18:43:47.738Z,28.09
2022-07-31T18:46:14.777Z,28.00
2022-07-31T18:48:41.256Z,27.92
2022-07-31T18:51:08.198Z,27.85
2022-07-31T18:53:37.288Z,27.70
2022-07-31T18:56:04.109Z,27.49
2022-07-31T18:58:33.115Z,27.47
2022-07-31T19:01:02.903Z,27.43
2022-07-31T19:03:30.873Z,27.38
2022-07-31T19:05:58.581Z,27.31
2022-07-31T19:08:47.906Z,27.15
2022-07-31T19:11:14.414Z,27.07
2022-07-31T19:13:40.906Z,27.09
2022-07-31T19:16:07.484Z,26.98
2022-07-31T19:18:40.913Z,26.82
2022-07-31T19:21:17.748Z,26.72
2022-07-31T19:23:56.915Z,26.70
2022-07-31T19:26:25.650Z,26.58
2022-07-31T19:28:58.911Z,26.54
2022-07-31T19:31:28.000Z,26.40
2022-07-31T19:33:54.597Z,26.35
2022-07-31T19:36:21.146Z,26.24
2022-07-31T19:38:47.680Z,26.20
2022-07-31T19:41:15.781Z,26.09
2022-07-31T19:43:44.771Z,25.99
2022-07-31T19:46:12.588Z,25.86
2022-07-31T19:48:47.994Z,25.86
2022-07-31T19:51:15.797Z,25.79
2022-07-31T19:53:49.904Z,25.76
2022-07-31T19:56:21.022Z,25.63
2022-07-31T19:58:57.948Z,25.60
2022-07-31T20:01:24.400Z,25.45
2022-07-31T20:03:51.118Z,25.40
2022-07-31T20:06:17.741Z,25.39
2022-07-31T20:08:44.252Z,25.31
2022-07-31T20:11:10.945Z,25.27
2022-07-31T20:13:40.330Z,25.23
2022-07-31T20:16:07.089Z,25.10
2022-07-31T20:18:33.793Z,25.05
2022-07-31T20:21:04.120Z,24.96
2022-07-31T20:23:34.656Z,24.89
2022-07-31T20:26:01.209Z,24.78
2022-07-31T20:28:28.144Z,24.74
2022-07-31T20:30:54.794Z,24.64
2022-07-31T20:33:24.013Z,24.60
2022-07-31T20:35:50.729Z,24.56
2022-07-31T20:38:22.167Z,24.50
2022-07-31T20:40:53.548Z,24.47
2022-07-31T20:43:23.446Z,24.47
2022-07-31T20:45:50.207Z,24.48
2022-07-31T20:48:24.045Z,24.51
2022-07-31T20:50:51.244Z,24.52
2022-07-31T20:53:17.692Z,24.48
2022-07-31T20:55:49.351Z,24.42
2022-07-31T20:58:23.140Z,24.44
2022-07-31T21:00:51.002Z,24.40
2022-07-31T21:03:18.862Z,24.32
2022-07-31T21:05:49.157Z,24.32
2022-07-31T21:08:16.245Z,24.26
2022-07-31T21:10:42.745Z,24.20
2022-07-31T21:13:09.678Z,24.20
2022-07-31T21:15:42.665Z,24.17
2022-07-31T21:18:15.184Z,24.12
2022-07-31T21:20:51.127Z,24.03
2022-07-31T21:23:27.059Z,24.08
2022-07-31T21:25:55.859Z,24.00
2022-07-31T21:28:24.709Z,23.98
2022-07-31T21:30:54.004Z,23.92
2022-07-31T21:33:20.692Z,23.86
2022-07-31T21:35:47.654Z,23.93
2022-07-31T21:38:17.612Z,23.88
2022-07-31T21:40:44.966Z,23.83
2022-07-31T21:43:11.815Z,23.76
2022-07-31T21:45:55.396Z,23.71
2022-07-31T21:48:26.075Z,23.67
2022-07-31T21:50:53.075Z,23.59
2022-07-31T21:53:19.534Z,23.52
2022-07-31T21:55:45.913Z,23.51
2022-07-31T21:58:12.695Z,23.45
2022-07-31T22:00:39.390Z,23.38
2022-07-31T22:03:06.490Z,23.40
2022-07-31T22:05:52.113Z,23.38
2022-07-31T22:08:19.631Z,23.31
2022-07-31T22:10:46.950Z,23.28
2022-07-31T22:13:16.097Z,23.26
2022-07-31T22:15:55.496Z,23.21
2022-07-31T22:18:31.220Z,23.18
2022-07-31T22:20:59.169Z,23.12
2022-07-31T22:23:27.349Z,23.13
2022-07-31T22:25:54.767Z,23.13
2022-07-31T22:28:23.208Z,23.05
2022-07-31T22:30:50.777Z,22.97
2022-07-31T22:33:17.398Z,22.92
2022-07-31T22:35:44.123Z,22.86
2022-07-31T22:38:13.739Z,22.83
2022-07-31T22:40:40.484Z,22.74
2022-07-31T22:44:10.289Z,22.63
2022-07-31T22:45:57.883Z,22.70
2022-07-31T22:48:24.544Z,22.65
2022-07-31T22:50:51.077Z,22.60
2022-07-31T22:53:24.065Z,22.55
2022-07-31T22:55:53.020Z,22.44
2022-07-31T22:58:29.085Z,22.45
2022-07-31T23:00:56.306Z,22.41
2022-07-31T23:03:22.767Z,22.42
2022-07-31T23:06:02.654Z,22.38
2022-07-31T23:08:42.243Z,22.37
2022-07-31T23:11:08.865Z,22.32
2022-07-31T23:13:35.361Z,22.29
2022-07-31T23:16:01.766Z,22.25
2022-07-31T23:18:37.093Z,22.23
2022-07-31T23:21:08.393Z,22.23
2022-07-31T23:23:48.584Z,22.23
2022-07-31T23:26:16.194Z,22.19
2022-07-31T23:28:49.092Z,22.16
2022-07-31T23:31:16.343Z,22.07
2022-07-31T23:33:43.519Z,22.08
2022-07-31T23:36:10.164Z,22.04
2022-07-31T23:38:36.760Z,22.00
2022-07-31T23:41:03.645Z,21.99
2022-07-31T23:43:30.675Z,21.99
2022-07-31T23:45:57.297Z,21.91
2022-07-31T23:48:32.100Z,21.91
2022-07-31T23:51:00.950Z,21.89
2022-07-31T23:53:34.114Z,21.87
2022-07-31T23:56:00.517Z,21.87
2022-07-31T23:58:27.010Z,21.88
